Terminal Aerodrome Forecast
Issued by NWS Sterling, VA

Current Version | Previous Version | Graphics & Text | Print | Product List | Glossary On
Versions: 1 2 3 4 5 6 7 8 9 10 11 12 13 14 15 16 17 18 19 20 21 22 23 24 25 26
000
FTUS41 KLWX 211501 AAB
TAFIAD
TAF AMD
KIAD 211501Z 2115/2218 00000KT 1SM -DZ BR BKN002 OVC005
     FM211630 VRB03KT 5SM BR BKN004 OVC008
     FM211900 17004KT P6SM BKN008 OVC015
     FM212300 15004KT 5SM -DZ BR BKN004 OVC008
     FM220600 VRB03KT 1SM -DZ BR OVC003
     FM221600 08005KT 5SM -DZ BR OVC008=

USA.gov is the U.S. government's official web portal to all federal, state and local government web resources and services.